createdAt,value
2019-02-14T00:00:23.793Z,22.16
2019-02-14T00:02:52.747Z,22.18
2019-02-14T00:05:20.946Z,22.18
2019-02-14T00:07:49.567Z,22.21
2019-02-14T00:10:19.429Z,22.17
2019-02-14T00:12:48.068Z,22.15
2019-02-14T00:15:15.958Z,22.07
2019-02-14T00:17:48.037Z,22.12
2019-02-14T00:20:16.459Z,22.06
2019-02-14T00:22:45.311Z,22.06
2019-02-14T00:25:13.359Z,22.03
2019-02-14T00:27:41.974Z,21.99
2019-02-14T00:30:10.359Z,21.99
2019-02-14T00:32:39.394Z,21.98
2019-02-14T00:35:08.086Z,22.01
2019-02-14T00:37:36.456Z,21.96
2019-02-14T00:40:04.472Z,21.93
2019-02-14T00:42:33.356Z,21.97
2019-02-14T00:45:01.739Z,21.94
2019-02-14T00:47:30.720Z,21.89
2019-02-14T00:49:59.375Z,21.89
2019-02-14T00:52:28.037Z,21.92
2019-02-14T00:54:57.741Z,21.87
2019-02-14T00:57:26.347Z,21.92
2019-02-14T00:59:54.919Z,21.86
2019-02-14T01:02:23.762Z,21.82
2019-02-14T01:04:52.790Z,21.85
2019-02-14T01:07:21.067Z,21.91
2019-02-14T01:09:50.217Z,21.84
2019-02-14T01:12:19.227Z,21.81
2019-02-14T01:14:48.598Z,21.86
2019-02-14T01:17:17.030Z,21.83
2019-02-14T01:19:47.882Z,21.77
2019-02-14T01:22:16.482Z,21.86
2019-02-14T01:24:44.904Z,21.87
2019-02-14T01:27:13.306Z,21.83
2019-02-14T01:29:41.716Z,21.83
2019-02-14T01:32:09.491Z,21.83
2019-02-14T01:34:37.099Z,21.80
2019-02-14T01:37:04.848Z,21.81
2019-02-14T01:39:33.724Z,21.80
2019-02-14T01:42:01.753Z,21.85
2019-02-14T01:44:30.766Z,21.79
2019-02-14T01:46:58.484Z,21.78
2019-02-14T01:51:44.226Z,21.82
2019-02-14T01:54:12.300Z,21.77
2019-02-14T01:56:40.196Z,21.78
2019-02-14T01:59:08.338Z,21.79
2019-02-14T02:01:55.462Z,21.73
2019-02-14T02:04:23.699Z,21.78
2019-02-14T02:06:50.835Z,21.71
2019-02-14T02:09:18.929Z,21.69
2019-02-14T02:11:47.724Z,21.73
2019-02-14T02:14:16.729Z,21.73
2019-02-14T02:16:45.312Z,21.67
2019-02-14T02:19:12.932Z,21.70
2019-02-14T02:21:41.053Z,21.68
2019-02-14T02:24:08.353Z,21.74
2019-02-14T02:26:36.183Z,21.71
2019-02-14T02:29:03.545Z,21.69
2019-02-14T02:31:31.130Z,21.60
2019-02-14T02:33:58.643Z,21.60
2019-02-14T02:36:26.043Z,21.66
2019-02-14T02:38:54.130Z,21.57
2019-02-14T02:41:21.245Z,21.63
2019-02-14T02:44:09.107Z,21.66
2019-02-14T02:46:37.071Z,21.66
2019-02-14T02:49:05.134Z,21.58
2019-02-14T02:51:32.251Z,21.62
2019-02-14T02:53:59.406Z,21.59
2019-02-14T02:56:26.546Z,21.48
2019-02-14T02:58:53.701Z,21.56
2019-02-14T03:01:20.817Z,21.52
2019-02-14T03:03:48.134Z,21.60
2019-02-14T03:06:15.536Z,21.57
2019-02-14T03:08:43.193Z,21.56
2019-02-14T03:11:10.322Z,21.50
2019-02-14T03:13:37.437Z,21.45
2019-02-14T03:16:04.529Z,21.47
2019-02-14T03:18:31.975Z,21.48
2019-02-14T03:20:59.399Z,21.49
2019-02-14T03:23:26.506Z,21.43
2019-02-14T03:25:54.157Z,21.43
2019-02-14T03:28:21.574Z,21.53
2019-02-14T03:30:49.102Z,21.51
2019-02-14T03:33:16.150Z,21.46
2019-02-14T03:35:43.331Z,21.46
2019-02-14T03:38:10.540Z,21.42
2019-02-14T03:40:37.979Z,21.46
2019-02-14T03:43:05.444Z,21.47
2019-02-14T03:45:32.635Z,21.46
2019-02-14T03:47:59.817Z,21.45
2019-02-14T03:50:27.508Z,21.39
2019-02-14T03:52:54.724Z,21.39
2019-02-14T03:55:22.005Z,21.43
2019-02-14T03:57:49.215Z,21.44
2019-02-14T04:00:16.536Z,21.36
2019-02-14T04:02:43.720Z,21.44
2019-02-14T04:05:10.883Z,21.50
2019-02-14T04:07:38.117Z,21.36
2019-02-14T04:10:06.699Z,21.39
2019-02-14T04:12:34.912Z,21.40
2019-02-14T04:15:02.987Z,21.38
2019-02-14T04:17:30.421Z,21.28
2019-02-14T04:19:57.890Z,21.37
2019-02-14T04:22:25.105Z,21.34
2019-02-14T04:24:54.479Z,21.32
2019-02-14T04:27:22.204Z,21.32
2019-02-14T04:29:50.607Z,21.29
2019-02-14T04:32:19.127Z,21.32
2019-02-14T04:34:47.242Z,21.31
2019-02-14T04:37:15.745Z,21.31
2019-02-14T04:39:44.300Z,21.11
2019-02-14T04:42:15.102Z,21.11
2019-02-14T04:44:43.333Z,21.19
2019-02-14T04:47:12.727Z,21.13
2019-02-14T04:49:42.000Z,21.25
2019-02-14T04:52:10.281Z,21.18
2019-02-14T04:54:39.312Z,21.24
2019-02-14T04:57:08.276Z,21.21
2019-02-14T04:59:37.214Z,21.24
2019-02-14T05:02:08.707Z,21.21
2019-02-14T05:06:13.847Z,21.26
2019-02-14T05:08:42.126Z,21.25
2019-02-14T05:11:09.872Z,21.09
2019-02-14T05:13:38.552Z,21.23
2019-02-14T05:16:05.823Z,21.16
2019-02-14T05:18:33.057Z,21.14
2019-02-14T05:21:00.978Z,21.16
2019-02-14T05:23:29.223Z,21.16
2019-02-14T05:25:56.658Z,21.20
2019-02-14T05:28:23.929Z,21.20
2019-02-14T05:30:52.320Z,21.15
2019-02-14T05:33:20.378Z,21.14
2019-02-14T05:35:48.802Z,21.18
2019-02-14T05:38:17.134Z,21.12
2019-02-14T05:40:46.051Z,21.10
2019-02-14T05:43:13.379Z,21.07
2019-02-14T05:45:41.553Z,21.10
2019-02-14T05:48:09.629Z,21.15
2019-02-14T05:50:37.386Z,21.16
2019-02-14T05:53:04.606Z,21.13
2019-02-14T05:55:32.407Z,21.16
2019-02-14T05:57:59.989Z,21.25
2019-02-14T06:00:28.446Z,21.17
2019-02-14T06:02:55.757Z,21.09
2019-02-14T06:05:23.023Z,21.14
2019-02-14T06:07:50.282Z,21.06
2019-02-14T06:10:17.597Z,21.05
2019-02-14T06:13:05.033Z,21.14
2019-02-14T06:15:32.532Z,21.07
2019-02-14T06:18:00.009Z,21.11
2019-02-14T06:20:27.277Z,20.99
2019-02-14T06:22:54.512Z,21.06
2019-02-14T06:25:21.750Z,21.11
2019-02-14T06:27:50.730Z,20.97
2019-02-14T06:30:18.286Z,20.98
2019-02-14T06:32:45.497Z,20.98
2019-02-14T06:35:13.082Z,21.04
2019-02-14T06:37:40.304Z,21.21
2019-02-14T06:40:09.204Z,20.96
2019-02-14T06:42:37.041Z,20.93
2019-02-14T06:47:47.436Z,21.24
2019-02-14T06:50:14.775Z,21.24
2019-02-14T06:52:43.207Z,21.24
2019-02-14T06:55:10.791Z,21.36
2019-02-14T06:57:38.976Z,21.21
2019-02-14T07:00:09.092Z,21.19
2019-02-14T07:02:37.241Z,21.16
2019-02-14T07:05:06.054Z,21.21
2019-02-14T07:07:33.886Z,21.17
2019-02-14T07:10:02.190Z,20.98
2019-02-14T07:12:29.410Z,21.14
2019-02-14T07:14:57.199Z,21.11
2019-02-14T07:17:24.834Z,21.17
2019-02-14T07:19:53.114Z,21.09
2019-02-14T07:22:21.016Z,21.26
2019-02-14T07:24:49.705Z,21.15
2019-02-14T07:27:16.929Z,21.37
2019-02-14T07:29:44.487Z,21.28
2019-02-14T07:32:12.759Z,21.45
2019-02-14T07:34:40.363Z,21.15
2019-02-14T07:37:08.641Z,21.59
2019-02-14T07:39:37.082Z,21.60
2019-02-14T07:42:05.243Z,21.60
2019-02-14T07:44:33.300Z,21.71
2019-02-14T07:47:01.032Z,21.71
2019-02-14T07:50:04.791Z,21.69
2019-02-14T07:52:32.452Z,21.82
2019-02-14T07:55:00.419Z,21.85
2019-02-14T07:57:28.054Z,21.80
2019-02-14T07:59:55.471Z,21.86
2019-02-14T08:02:23.093Z,21.73
2019-02-14T08:04:50.556Z,21.84
2019-02-14T08:07:18.822Z,21.45
2019-02-14T08:09:47.351Z,22.11
2019-02-14T08:12:15.176Z,22.11
2019-02-14T08:14:43.225Z,22.11
2019-02-14T08:17:10.998Z,22.30
2019-02-14T08:19:39.408Z,22.41
2019-02-14T08:22:07.053Z,22.57
2019-02-14T08:24:34.702Z,22.72
2019-02-14T08:27:02.568Z,22.61
2019-02-14T08:29:30.946Z,22.52
2019-02-14T08:31:58.821Z,22.61
2019-02-14T08:34:27.488Z,22.56
2019-02-14T08:36:56.198Z,22.41
2019-02-14T08:39:23.455Z,22.41
2019-02-14T08:41:51.131Z,22.46
2019-02-14T08:44:18.657Z,22.37
2019-02-14T08:46:46.700Z,22.37
2019-02-14T08:49:15.124Z,22.43
2019-02-14T08:51:42.872Z,22.42
2019-02-14T08:54:10.884Z,22.42
2019-02-14T08:56:38.216Z,22.50
2019-02-14T08:59:05.753Z,22.46
2019-02-14T09:01:33.391Z,22.49
2019-02-14T09:04:00.629Z,22.56
2019-02-14T09:06:28.559Z,22.68
2019-02-14T09:08:56.121Z,22.71
2019-02-14T09:11:23.942Z,22.63
2019-02-14T09:13:51.423Z,22.74
2019-02-14T09:16:19.078Z,22.80
2019-02-14T09:18:46.368Z,22.77
2019-02-14T09:21:13.929Z,22.84
2019-02-14T09:23:41.890Z,22.83
2019-02-14T09:26:10.589Z,22.92
2019-02-14T09:28:39.278Z,22.63
2019-02-14T09:31:08.258Z,22.91
2019-02-14T09:33:37.335Z,22.99
2019-02-14T09:36:06.087Z,23.05
2019-02-14T09:38:34.659Z,23.23
2019-02-14T09:41:03.246Z,23.31
2019-02-14T09:43:31.430Z,23.26
2019-02-14T09:46:00.775Z,23.36
2019-02-14T09:48:29.444Z,23.31
2019-02-14T09:50:58.159Z,23.35
2019-02-14T09:53:26.569Z,23.31
2019-02-14T09:55:54.463Z,23.31
2019-02-14T09:58:22.787Z,23.43
2019-02-14T10:00:51.097Z,23.34
2019-02-14T10:03:20.901Z,23.43
2019-02-14T10:05:49.574Z,23.46
2019-02-14T10:08:18.374Z,23.47
2019-02-14T10:10:46.943Z,23.68
2019-02-14T10:13:15.280Z,23.61
2019-02-14T10:15:43.940Z,23.54
2019-02-14T10:18:12.499Z,23.56
2019-02-14T10:20:40.997Z,23.56
2019-02-14T10:23:09.043Z,23.58
2019-02-14T10:25:37.373Z,23.63
2019-02-14T10:28:05.399Z,23.67
2019-02-14T10:30:34.324Z,23.73
2019-02-14T10:33:02.855Z,23.65
2019-02-14T10:35:30.914Z,23.60
2019-02-14T10:38:00.076Z,23.62
2019-02-14T10:40:28.384Z,23.66
2019-02-14T10:42:57.359Z,23.81
2019-02-14T10:45:26.061Z,23.72
2019-02-14T10:47:54.156Z,23.80
2019-02-14T10:50:23.028Z,23.75
2019-02-14T10:52:51.926Z,23.80
2019-02-14T10:55:20.472Z,23.79
2019-02-14T10:57:48.707Z,23.70
2019-02-14T11:00:19.517Z,23.80
2019-02-14T11:02:49.100Z,23.85
2019-02-14T11:05:19.451Z,23.84
2019-02-14T11:07:48.157Z,23.64
2019-02-14T11:10:16.328Z,23.64
2019-02-14T11:12:45.181Z,23.59
2019-02-14T11:15:15.561Z,23.57
2019-02-14T11:17:45.026Z,23.36
2019-02-14T11:20:13.806Z,23.40
2019-02-14T11:22:43.293Z,23.32
2019-02-14T11:25:17.330Z,23.39
2019-02-14T11:27:45.496Z,23.37
2019-02-14T11:30:13.763Z,23.34
2019-02-14T11:32:42.914Z,23.19
2019-02-14T11:35:12.149Z,23.19
2019-02-14T11:37:40.823Z,23.33
2019-02-14T11:40:10.691Z,23.30
2019-02-14T11:42:39.202Z,23.36
2019-02-14T11:45:11.575Z,23.31
2019-02-14T11:50:08.928Z,23.30
2019-02-14T11:52:37.373Z,23.29
2019-02-14T11:55:06.400Z,23.27
2019-02-14T11:57:35.461Z,23.21
2019-02-14T12:00:05.599Z,23.22
2019-02-14T12:02:34.470Z,23.23
2019-02-14T12:05:03.740Z,23.26
2019-02-14T12:07:31.937Z,23.26
2019-02-14T12:09:59.952Z,23.34
2019-02-14T12:12:28.349Z,23.58
2019-02-14T12:14:57.313Z,23.59
2019-02-14T12:17:25.621Z,23.62
2019-02-14T12:19:55.055Z,23.54
2019-02-14T12:22:22.889Z,23.53
2019-02-14T12:24:52.324Z,23.53
2019-02-14T12:27:21.847Z,23.48
2019-02-14T12:29:49.732Z,23.48
2019-02-14T12:32:18.663Z,23.54
2019-02-14T12:34:48.334Z,23.53
2019-02-14T12:37:16.913Z,23.53
2019-02-14T12:39:45.479Z,23.64
2019-02-14T12:42:15.107Z,23.68
2019-02-14T12:44:44.264Z,23.84
2019-02-14T12:47:12.724Z,23.93
2019-02-14T12:49:41.266Z,23.92
2019-02-14T12:52:09.189Z,23.87
2019-02-14T12:54:37.175Z,23.91
2019-02-14T12:57:05.929Z,23.90
2019-02-14T12:59:36.098Z,23.90
2019-02-14T13:02:04.768Z,23.99
2019-02-14T13:04:33.269Z,24.02
2019-02-14T13:07:01.578Z,24.01
2019-02-14T13:09:31.021Z,24.03
2019-02-14T13:12:00.633Z,24.09
2019-02-14T13:14:29.798Z,24.14
2019-02-14T13:16:58.938Z,24.21
2019-02-14T13:19:27.828Z,24.32
2019-02-14T13:21:56.458Z,24.38
2019-02-14T13:24:25.065Z,24.39
2019-02-14T13:26:55.195Z,24.40
2019-02-14T13:29:23.013Z,24.40
2019-02-14T13:31:51.122Z,24.42
2019-02-14T13:34:19.646Z,24.45
2019-02-14T13:36:47.763Z,24.50
2019-02-14T13:39:15.823Z,24.47
2019-02-14T13:41:44.098Z,24.52
2019-02-14T13:44:12.635Z,24.52
2019-02-14T13:46:40.483Z,24.57
2019-02-14T13:49:08.914Z,24.55
2019-02-14T13:51:37.142Z,24.49
2019-02-14T13:54:06.003Z,24.47
2019-02-14T13:56:35.540Z,24.41
2019-02-14T13:59:04.208Z,24.48
2019-02-14T14:01:32.231Z,24.42
2019-02-14T14:04:01.511Z,24.38
2019-02-14T14:06:30.473Z,24.35
2019-02-14T14:08:58.501Z,24.36
2019-02-14T14:11:26.282Z,24.35
2019-02-14T14:13:54.297Z,24.22
2019-02-14T14:16:22.605Z,24.24
2019-02-14T14:18:51.293Z,24.36
2019-02-14T14:21:19.108Z,24.41
2019-02-14T14:23:47.558Z,24.27
2019-02-14T14:26:15.464Z,24.24
2019-02-14T14:29:16.417Z,24.19
2019-02-14T14:31:43.623Z,24.03
2019-02-14T14:34:11.420Z,24.00
2019-02-14T14:36:39.869Z,23.95
2019-02-14T14:39:07.435Z,23.92
2019-02-14T14:41:34.663Z,23.97
2019-02-14T14:44:14.385Z,23.97
2019-02-14T14:47:02.457Z,23.91
2019-02-14T14:49:29.959Z,23.92
2019-02-14T14:51:57.886Z,23.83
2019-02-14T14:54:25.797Z,23.79
2019-02-14T14:56:53.189Z,23.85
2019-02-14T14:59:21.111Z,23.91
2019-02-14T15:01:48.951Z,23.84
2019-02-14T15:04:16.841Z,23.79
2019-02-14T15:06:44.671Z,23.70
2019-02-14T15:09:12.533Z,23.66
2019-02-14T15:11:41.006Z,23.53
2019-02-14T15:16:24.359Z,23.43
2019-02-14T15:18:52.242Z,23.40
2019-02-14T15:21:20.432Z,23.37
2019-02-14T15:23:48.061Z,23.30
2019-02-14T15:26:15.279Z,23.23
2019-02-14T15:28:42.800Z,23.21
2019-02-14T15:31:10.648Z,23.26
2019-02-14T15:33:42.903Z,23.20
2019-02-14T15:36:10.117Z,23.23
2019-02-14T15:38:37.364Z,23.20
2019-02-14T15:41:05.173Z,23.19
2019-02-14T15:43:33.753Z,23.21
2019-02-14T15:46:01.726Z,23.21
2019-02-14T15:48:28.938Z,23.19
2019-02-14T15:50:56.685Z,23.19
2019-02-14T15:53:25.835Z,23.19
2019-02-14T15:55:53.810Z,23.26
2019-02-14T15:58:21.659Z,23.23
2019-02-14T16:00:49.975Z,23.26
2019-02-14T16:03:19.626Z,23.21
2019-02-14T16:05:46.943Z,23.23
2019-02-14T16:08:15.521Z,23.21
2019-02-14T16:10:58.811Z,23.26
2019-02-14T16:13:29.136Z,23.24
2019-02-14T16:15:58.767Z,23.20
2019-02-14T16:18:27.249Z,23.25
2019-02-14T16:20:54.502Z,23.19
2019-02-14T16:23:23.715Z,22.72
2019-02-14T16:27:35.274Z,23.26
2019-02-14T16:30:02.631Z,23.26
2019-02-14T16:32:32.213Z,23.23
2019-02-14T16:35:00.931Z,23.26
2019-02-14T16:37:28.777Z,23.21
2019-02-14T16:39:56.877Z,23.21
2019-02-14T16:42:26.256Z,23.23
2019-02-14T16:44:54.212Z,23.28
2019-02-14T16:47:21.515Z,23.31
2019-02-14T16:49:49.380Z,23.27
2019-02-14T16:52:17.506Z,23.27
2019-02-14T16:54:46.073Z,23.25
2019-02-14T16:57:13.920Z,23.24
2019-02-14T16:59:41.721Z,23.24
2019-02-14T17:02:09.493Z,23.23
2019-02-14T17:04:36.805Z,23.10
2019-02-14T17:07:04.396Z,23.10
2019-02-14T17:09:32.653Z,23.04
2019-02-14T17:12:00.056Z,23.05
2019-02-14T17:14:27.879Z,23.11
2019-02-14T17:16:56.029Z,23.15
2019-02-14T17:19:23.804Z,23.09
2019-02-14T17:21:51.793Z,23.01
2019-02-14T17:24:19.878Z,23.01
2019-02-14T17:26:48.151Z,22.97
2019-02-14T17:29:15.984Z,22.95
2019-02-14T17:31:44.145Z,22.96
2019-02-14T17:34:12.050Z,22.92
2019-02-14T17:36:41.954Z,22.94
2019-02-14T17:39:09.352Z,22.89
2019-02-14T17:41:37.480Z,22.88
2019-02-14T17:44:05.361Z,22.90
2019-02-14T17:46:33.039Z,22.81
2019-02-14T17:49:01.313Z,22.83
2019-02-14T17:51:29.780Z,22.83
2019-02-14T17:53:57.842Z,22.89
2019-02-14T17:56:26.086Z,22.78
2019-02-14T17:58:53.498Z,22.80
2019-02-14T18:01:21.034Z,22.82
2019-02-14T18:03:48.661Z,22.81
2019-02-14T18:06:16.268Z,22.84
2019-02-14T18:08:43.518Z,22.81
2019-02-14T18:11:11.472Z,22.87
2019-02-14T18:15:10.144Z,22.77
2019-02-14T18:17:37.389Z,22.75
2019-02-14T18:20:05.803Z,22.65
2019-02-14T18:22:33.044Z,22.65
2019-02-14T18:25:00.252Z,22.46
2019-02-14T18:27:27.506Z,22.33
2019-02-14T18:29:55.499Z,22.31
2019-02-14T18:32:23.374Z,22.35
2019-02-14T18:34:51.234Z,22.58
2019-02-14T18:37:18.812Z,22.65
2019-02-14T18:39:46.885Z,22.63
2019-02-14T18:42:15.347Z,22.69
2019-02-14T18:44:42.874Z,22.67
2019-02-14T18:47:10.670Z,22.64
2019-02-14T18:49:38.434Z,22.63
2019-02-14T18:52:06.161Z,22.65
2019-02-14T18:54:33.416Z,22.64
2019-02-14T18:57:01.535Z,22.64
2019-02-14T18:59:29.764Z,22.58
2019-02-14T19:01:59.014Z,22.57
2019-02-14T19:04:27.849Z,22.55
2019-02-14T19:06:56.650Z,22.59
2019-02-14T19:09:25.623Z,22.51
2019-02-14T19:11:53.904Z,22.39
2019-02-14T19:14:21.782Z,22.46
2019-02-14T19:16:50.364Z,22.54
2019-02-14T19:19:18.287Z,22.52
2019-02-14T19:21:47.117Z,22.52
2019-02-14T19:24:15.585Z,22.54
2019-02-14T19:26:46.919Z,22.52
2019-02-14T19:29:15.271Z,22.57
2019-02-14T19:31:45.757Z,22.59
2019-02-14T19:34:14.115Z,22.61
2019-02-14T19:36:42.466Z,22.61
2019-02-14T19:39:10.366Z,22.57
2019-02-14T19:41:38.523Z,22.58
2019-02-14T19:44:07.712Z,22.57
2019-02-14T19:46:36.010Z,22.53
2019-02-14T19:49:04.768Z,22.49
2019-02-14T19:51:33.218Z,22.49
2019-02-14T19:54:01.646Z,22.51
2019-02-14T19:56:30.880Z,22.53
2019-02-14T19:59:00.961Z,22.50
2019-02-14T20:01:29.921Z,22.53
2019-02-14T20:03:58.412Z,22.55
2019-02-14T20:06:27.339Z,22.48
2019-02-14T20:08:55.552Z,22.51
2019-02-14T20:11:23.450Z,22.52
2019-02-14T20:13:51.928Z,22.49
2019-02-14T20:16:20.707Z,22.48
2019-02-14T20:18:48.922Z,22.50
2019-02-14T20:21:21.329Z,22.46
2019-02-14T20:23:50.351Z,22.48
2019-02-14T20:26:19.077Z,22.44
2019-02-14T20:28:47.647Z,22.42
2019-02-14T20:31:16.399Z,22.45
2019-02-14T20:33:44.188Z,22.45
2019-02-14T20:36:12.464Z,22.46
2019-02-14T20:38:42.267Z,22.41
2019-02-14T20:41:11.251Z,22.37
2019-02-14T20:43:40.003Z,22.37
2019-02-14T20:46:09.335Z,22.34
2019-02-14T20:48:37.926Z,22.40
2019-02-14T20:51:05.962Z,22.42
2019-02-14T20:53:34.893Z,22.35
2019-02-14T20:56:04.342Z,22.35
2019-02-14T20:58:33.181Z,22.29
2019-02-14T21:01:04.224Z,22.32
2019-02-14T21:03:32.919Z,22.30
2019-02-14T21:06:02.102Z,22.27
2019-02-14T21:08:31.104Z,22.26
2019-02-14T21:10:59.648Z,22.28
2019-02-14T21:13:27.921Z,22.28
2019-02-14T21:15:57.220Z,22.20
2019-02-14T21:18:25.550Z,22.27
2019-02-14T21:20:54.194Z,22.28
2019-02-14T21:23:22.955Z,22.29
2019-02-14T21:25:51.445Z,22.33
2019-02-14T21:28:19.528Z,22.27
2019-02-14T21:30:47.836Z,22.16
2019-02-14T21:33:17.587Z,22.23
2019-02-14T21:35:45.867Z,22.34
2019-02-14T21:38:13.912Z,22.35
2019-02-14T21:40:42.925Z,22.26
2019-02-14T21:43:12.000Z,22.23
2019-02-14T21:45:40.812Z,22.18
2019-02-14T21:48:09.504Z,22.23
2019-02-14T21:50:37.761Z,22.29
2019-02-14T21:53:05.998Z,22.25
2019-02-14T21:55:34.522Z,22.24
2019-02-14T21:58:04.994Z,22.22
2019-02-14T22:00:33.030Z,22.25
2019-02-14T22:03:01.395Z,22.25
2019-02-14T22:05:30.330Z,22.16
2019-02-14T22:07:59.574Z,22.23
2019-02-14T22:10:32.665Z,22.28
2019-02-14T22:13:02.423Z,22.26
2019-02-14T22:15:32.478Z,22.22
2019-02-14T22:18:00.801Z,22.18
2019-02-14T22:20:29.882Z,22.19
2019-02-14T22:22:59.840Z,22.21
2019-02-14T22:25:28.380Z,22.12
2019-02-14T22:27:57.545Z,22.22
2019-02-14T22:30:26.700Z,22.15
2019-02-14T22:32:56.574Z,22.19
2019-02-14T22:35:25.311Z,22.22
2019-02-14T22:37:53.325Z,22.05
2019-02-14T22:40:22.910Z,22.12
2019-02-14T22:42:51.590Z,22.06
2019-02-14T22:45:20.560Z,22.08
2019-02-14T22:49:10.571Z,22.09
2019-02-14T22:51:38.559Z,22.10
2019-02-14T22:54:06.624Z,22.10
2019-02-14T22:56:34.960Z,22.07
2019-02-14T22:59:02.199Z,22.08
2019-02-14T23:01:29.722Z,22.10
2019-02-14T23:03:57.898Z,22.01
2019-02-14T23:06:25.375Z,22.07
2019-02-14T23:09:12.902Z,22.07
2019-02-14T23:11:40.135Z,22.01
2019-02-14T23:14:07.688Z,22.03
2019-02-14T23:16:35.748Z,21.98
2019-02-14T23:19:03.620Z,22.01
2019-02-14T23:21:32.048Z,21.90
2019-02-14T23:23:59.981Z,21.94
2019-02-14T23:26:28.638Z,21.96
2019-02-14T23:28:56.164Z,22.01
2019-02-14T23:31:24.638Z,22.01
2019-02-14T23:33:52.477Z,22.02
2019-02-14T23:36:21.032Z,21.98
2019-02-14T23:38:49.118Z,21.99
2019-02-14T23:41:17.003Z,21.99
2019-02-14T23:43:45.187Z,21.99
2019-02-14T23:46:13.117Z,21.98
2019-02-14T23:48:41.542Z,21.88
2019-02-14T23:51:09.049Z,21.96
2019-02-14T23:53:36.650Z,21.93
2019-02-14T23:56:04.206Z,21.91
2019-02-14T23:58:31.769Z,21.86
